createdAt,value
2023-05-09T00:00:25.936Z,78.71
2023-05-09T00:01:25.991Z,77.72
2023-05-09T00:02:26.155Z,78.14
2023-05-09T00:03:26.122Z,77.03
2023-05-09T00:04:26.209Z,76.61
2023-05-09T00:05:26.461Z,76.42
2023-05-09T00:06:26.288Z,77.87
2023-05-09T00:07:26.323Z,77.65
2023-05-09T00:08:26.416Z,76.95
2023-05-09T00:09:26.465Z,77.93
2023-05-09T00:10:26.532Z,76.79
2023-05-09T00:11:26.588Z,76.71
2023-05-09T00:12:26.677Z,76.96
2023-05-09T00:13:26.765Z,76.43
2023-05-09T00:14:26.714Z,76.47
2023-05-09T00:15:26.721Z,76.66
2023-05-09T00:16:26.772Z,75.39
2023-05-09T00:17:26.830Z,75.36
2023-05-09T00:18:26.775Z,74.96
2023-05-09T00:19:26.780Z,76.33
2023-05-09T00:20:26.818Z,77.15
2023-05-09T00:21:26.884Z,75.85
2023-05-09T00:22:26.827Z,74.39
2023-05-09T00:23:26.829Z,77.77
2023-05-09T00:24:26.856Z,75.74
2023-05-09T00:25:26.848Z,75.08
2023-05-09T00:26:26.904Z,74.56
2023-05-09T00:27:26.906Z,75.57
2023-05-09T00:28:26.907Z,75.00
2023-05-09T00:29:26.923Z,73.68
2023-05-09T00:30:26.977Z,73.61
2023-05-09T00:31:27.000Z,73.09
2023-05-09T00:32:26.998Z,74.78
2023-05-09T00:33:27.052Z,71.84
2023-05-09T00:34:27.033Z,73.74
2023-05-09T00:35:27.052Z,74.43
2023-05-09T00:36:27.094Z,73.33
2023-05-09T00:37:27.169Z,73.71
2023-05-09T00:38:27.082Z,74.35
2023-05-09T00:39:27.093Z,72.59
2023-05-09T00:40:27.145Z,73.60
2023-05-09T00:41:27.117Z,72.66
2023-05-09T00:42:27.150Z,72.24
2023-05-09T00:43:27.144Z,72.84
2023-05-09T00:44:27.165Z,71.97
2023-05-09T00:45:27.247Z,71.94
2023-05-09T00:46:27.288Z,72.73
2023-05-09T00:47:27.356Z,69.81
2023-05-09T00:48:27.431Z,70.25
2023-05-09T00:49:27.444Z,73.77
2023-05-09T00:50:27.428Z,69.70
2023-05-09T00:51:27.469Z,71.42
2023-05-09T00:52:27.471Z,70.68
2023-05-09T00:53:27.594Z,72.53
2023-05-09T00:54:27.508Z,70.46
2023-05-09T00:55:27.489Z,71.46
2023-05-09T00:56:27.520Z,70.82
2023-05-09T00:57:27.547Z,68.87
2023-05-09T00:58:27.581Z,70.98
2023-05-09T00:59:27.555Z,70.64
2023-05-09T01:00:27.573Z,70.30
2023-05-09T01:01:27.620Z,69.32
2023-05-09T01:02:27.668Z,69.45
2023-05-09T01:03:27.693Z,68.80
2023-05-09T01:04:27.610Z,69.40
2023-05-09T01:05:27.662Z,67.20
2023-05-09T01:06:27.634Z,69.23
2023-05-09T01:07:27.656Z,67.14
2023-05-09T01:08:27.661Z,67.73
2023-05-09T01:09:27.777Z,67.64
2023-05-09T01:10:27.705Z,68.16
2023-05-09T01:11:27.732Z,66.80
2023-05-09T01:12:27.706Z,67.06
2023-05-09T01:13:27.794Z,68.25
2023-05-09T01:14:27.760Z,67.87
2023-05-09T01:15:27.799Z,68.27
2023-05-09T01:16:27.986Z,68.38
2023-05-09T01:17:27.965Z,66.75
2023-05-09T01:18:27.987Z,66.89
2023-05-09T01:19:28.013Z,65.36
2023-05-09T01:20:28.062Z,65.35
2023-05-09T01:21:28.149Z,65.93
2023-05-09T01:22:28.202Z,66.67
2023-05-09T01:23:28.190Z,66.77
2023-05-09T01:24:28.202Z,64.83
2023-05-09T01:25:28.340Z,64.58
2023-05-09T01:26:28.240Z,66.04
2023-05-09T01:27:28.231Z,63.85
2023-05-09T01:28:28.252Z,63.89
2023-05-09T01:29:28.275Z,63.14
2023-05-09T01:30:28.255Z,65.33
2023-05-09T01:31:28.309Z,64.81
2023-05-09T01:32:28.349Z,64.05
2023-05-09T01:33:28.315Z,63.11
2023-05-09T01:34:28.337Z,62.85
2023-05-09T01:35:28.350Z,61.24
2023-05-09T01:36:28.364Z,64.71
2023-05-09T01:37:28.337Z,63.31
2023-05-09T01:38:28.367Z,63.22
2023-05-09T01:39:28.403Z,63.17
2023-05-09T01:40:28.457Z,64.14
2023-05-09T01:41:28.592Z,64.06
2023-05-09T01:42:28.535Z,64.40
2023-05-09T01:43:28.590Z,63.95
2023-05-09T01:44:28.557Z,62.26
2023-05-09T01:45:28.567Z,62.75
2023-05-09T01:46:28.747Z,61.24
2023-05-09T01:47:28.646Z,62.37
2023-05-09T01:48:28.650Z,62.07
2023-05-09T01:49:28.651Z,60.93
2023-05-09T01:50:28.686Z,61.75
2023-05-09T01:51:28.666Z,60.21
2023-05-09T01:52:28.717Z,61.34
2023-05-09T01:53:28.747Z,61.85
2023-05-09T01:54:28.741Z,62.80
2023-05-09T01:55:28.776Z,62.23
2023-05-09T01:56:28.800Z,61.61
2023-05-09T01:57:28.914Z,61.12
2023-05-09T01:58:28.890Z,61.65
2023-05-09T01:59:28.846Z,61.30
2023-05-09T02:00:28.928Z,60.51
2023-05-09T02:01:28.887Z,58.83
2023-05-09T02:02:29.044Z,59.62
2023-05-09T02:03:28.994Z,59.42
2023-05-09T02:04:28.965Z,61.04
2023-05-09T02:05:28.960Z,56.99
2023-05-09T02:06:28.989Z,58.69
2023-05-09T02:07:28.998Z,59.41
2023-05-09T02:08:29.041Z,59.51
2023-05-09T02:09:29.064Z,58.32
2023-05-09T02:10:29.081Z,57.99
2023-05-09T02:11:29.104Z,57.54
2023-05-09T02:12:29.101Z,56.52
2023-05-09T02:13:29.243Z,57.84
2023-05-09T02:14:29.149Z,58.60
2023-05-09T02:15:29.168Z,56.80
2023-05-09T02:16:29.235Z,56.42
2023-05-09T02:17:29.218Z,57.21
2023-05-09T02:18:29.211Z,56.54
2023-05-09T02:19:29.249Z,58.50
2023-05-09T02:20:29.276Z,57.93
2023-05-09T02:21:29.376Z,57.55
2023-05-09T02:22:29.336Z,56.80
2023-05-09T02:23:29.347Z,56.24
2023-05-09T02:24:29.349Z,57.64
2023-05-09T02:25:29.380Z,57.42
2023-05-09T02:26:29.398Z,56.46
2023-05-09T02:27:29.497Z,55.59
2023-05-09T02:28:29.579Z,55.95
2023-05-09T02:29:29.550Z,55.05
2023-05-09T02:30:29.504Z,54.23
2023-05-09T02:31:29.603Z,56.69
2023-05-09T02:32:29.561Z,53.57
2023-05-09T02:33:29.554Z,52.83
2023-05-09T02:34:29.587Z,54.99
2023-05-09T02:35:29.570Z,54.11
2023-05-09T02:36:29.584Z,55.54
2023-05-09T02:37:29.575Z,55.33
2023-05-09T02:38:29.625Z,55.97
2023-05-09T02:39:29.633Z,54.95
2023-05-09T02:40:29.650Z,55.55
2023-05-09T02:41:29.654Z,54.51
2023-05-09T02:42:29.676Z,53.21
2023-05-09T02:43:29.677Z,55.20
2023-05-09T02:44:29.713Z,55.46
2023-05-09T02:45:29.829Z,53.80
2023-05-09T02:46:29.838Z,50.97
2023-05-09T02:47:29.867Z,54.81
2023-05-09T02:48:29.926Z,52.78
2023-05-09T02:49:32.398Z,53.26
2023-05-09T02:50:29.996Z,54.73
2023-05-09T02:51:29.950Z,54.31
2023-05-09T02:52:30.628Z,55.80
2023-05-09T02:53:29.953Z,55.18
2023-05-09T02:54:29.992Z,55.19
2023-05-09T02:55:29.962Z,52.00
2023-05-09T02:56:29.956Z,50.79
2023-05-09T02:57:29.947Z,50.72
2023-05-09T02:58:29.917Z,50.87
2023-05-09T02:59:29.910Z,50.39
2023-05-09T03:00:29.912Z,52.03
2023-05-09T03:01:30.038Z,51.37
2023-05-09T03:02:29.911Z,48.23
2023-05-09T03:03:29.935Z,52.02
2023-05-09T03:04:29.911Z,50.93
2023-05-09T03:05:29.901Z,50.94
2023-05-09T03:06:29.884Z,50.63
2023-05-09T03:07:29.897Z,50.92
2023-05-09T03:08:29.861Z,49.12
2023-05-09T03:09:29.846Z,49.05
2023-05-09T03:10:29.865Z,48.08
2023-05-09T03:11:29.822Z,48.13
2023-05-09T03:12:29.837Z,49.12
2023-05-09T03:13:29.821Z,50.50
2023-05-09T03:14:29.804Z,49.37
2023-05-09T03:15:29.824Z,49.02
2023-05-09T03:16:30.052Z,49.89
2023-05-09T03:17:29.940Z,48.05
2023-05-09T03:18:29.794Z,47.80
2023-05-09T03:19:29.785Z,49.71
2023-05-09T03:20:29.787Z,48.28
2023-05-09T03:21:29.752Z,49.62
2023-05-09T03:22:29.759Z,51.01
2023-05-09T03:23:29.755Z,50.25
2023-05-09T03:24:29.824Z,49.23
2023-05-09T03:25:29.875Z,50.82
2023-05-09T03:26:29.940Z,50.05
2023-05-09T03:27:30.033Z,46.19
2023-05-09T03:28:30.080Z,45.58
2023-05-09T03:29:30.104Z,46.16
2023-05-09T03:30:30.227Z,45.24
2023-05-09T03:31:30.293Z,46.10
2023-05-09T03:32:30.356Z,48.11
2023-05-09T03:33:30.482Z,47.39
2023-05-09T03:34:30.463Z,45.93
2023-05-09T03:35:30.505Z,44.99
2023-05-09T03:36:30.571Z,45.63
2023-05-09T03:37:30.641Z,46.44
2023-05-09T03:38:30.675Z,46.15
2023-05-09T03:39:30.644Z,46.45
2023-05-09T03:40:30.671Z,47.64
2023-05-09T03:41:30.680Z,46.14
2023-05-09T03:42:30.708Z,46.89
2023-05-09T03:43:30.765Z,45.94
2023-05-09T03:44:30.827Z,47.43
2023-05-09T03:45:30.903Z,45.85
2023-05-09T03:46:31.024Z,46.91
2023-05-09T03:47:31.029Z,48.22
2023-05-09T03:48:31.100Z,46.03
2023-05-09T03:49:31.260Z,44.88
2023-05-09T03:50:31.270Z,47.11
2023-05-09T03:51:31.268Z,46.62
2023-05-09T03:52:31.340Z,44.35
2023-05-09T03:53:31.403Z,44.29
2023-05-09T03:54:31.484Z,43.46
2023-05-09T03:55:31.551Z,44.16
2023-05-09T03:56:31.580Z,44.87
2023-05-09T03:57:31.643Z,45.60
2023-05-09T03:58:31.664Z,43.32
2023-05-09T03:59:31.731Z,44.94
2023-05-09T04:00:31.822Z,45.06
2023-05-09T04:01:31.851Z,45.53
2023-05-09T04:02:32.026Z,43.02
2023-05-09T04:03:32.009Z,44.05
2023-05-09T04:04:31.995Z,41.69
2023-05-09T04:05:32.160Z,44.89
2023-05-09T04:06:32.104Z,42.54
2023-05-09T04:07:32.185Z,42.18
2023-05-09T04:08:32.212Z,43.31
2023-05-09T04:09:32.291Z,41.83
2023-05-09T04:10:32.376Z,40.29
2023-05-09T04:11:32.402Z,40.93
2023-05-09T04:12:32.432Z,42.39
2023-05-09T04:13:32.505Z,41.32
2023-05-09T04:14:32.584Z,42.31
2023-05-09T04:15:32.643Z,42.44
2023-05-09T04:16:32.666Z,43.46
2023-05-09T04:17:32.700Z,40.45
2023-05-09T04:18:32.694Z,42.93
2023-05-09T04:19:32.703Z,43.65
2023-05-09T04:20:32.771Z,40.57
2023-05-09T04:21:32.921Z,41.78
2023-05-09T04:22:32.833Z,40.57
2023-05-09T04:23:32.872Z,40.13
2023-05-09T04:24:32.890Z,41.25
2023-05-09T04:25:32.915Z,39.64
2023-05-09T04:26:33.183Z,42.63
2023-05-09T04:27:32.948Z,40.26
2023-05-09T04:28:32.991Z,42.42
2023-05-09T04:29:33.029Z,41.74
2023-05-09T04:30:33.149Z,40.11
2023-05-09T04:31:33.245Z,40.57
2023-05-09T04:32:33.181Z,42.17
2023-05-09T04:33:33.186Z,39.34
2023-05-09T04:34:33.213Z,41.52
2023-05-09T04:35:33.230Z,40.24
2023-05-09T04:36:33.283Z,39.12
2023-05-09T04:37:33.352Z,39.66
2023-05-09T04:38:33.290Z,38.21
2023-05-09T04:39:33.296Z,39.33
2023-05-09T04:40:33.343Z,39.20
2023-05-09T04:41:33.332Z,38.81
2023-05-09T04:42:33.389Z,39.00
2023-05-09T04:43:33.389Z,40.36
2023-05-09T04:44:33.414Z,38.05
2023-05-09T04:45:33.477Z,37.78
2023-05-09T04:46:33.510Z,38.51
2023-05-09T04:47:33.606Z,36.39
2023-05-09T04:48:33.546Z,37.73
2023-05-09T04:49:33.570Z,36.13
2023-05-09T04:50:33.590Z,37.29
2023-05-09T04:51:33.624Z,36.51
2023-05-09T04:52:33.636Z,36.23
2023-05-09T04:53:33.764Z,37.17
2023-05-09T04:54:33.704Z,36.51
2023-05-09T04:55:33.723Z,38.37
2023-05-09T04:56:33.786Z,34.38
2023-05-09T04:57:33.769Z,36.54
2023-05-09T04:58:33.804Z,36.51
2023-05-09T04:59:33.842Z,38.58
2023-05-09T05:00:40.851Z,35.44
2023-05-09T05:01:33.865Z,35.85
2023-05-09T05:02:33.873Z,36.34
2023-05-09T05:03:33.863Z,37.35
2023-05-09T05:04:33.856Z,37.31
2023-05-09T05:05:36.969Z,38.66
2023-05-09T05:06:33.793Z,35.72
2023-05-09T05:07:33.807Z,35.83
2023-05-09T05:08:33.814Z,36.64
2023-05-09T05:09:33.885Z,37.98
2023-05-09T05:10:33.787Z,38.89
2023-05-09T05:11:33.795Z,37.55
2023-05-09T05:12:33.778Z,40.39
2023-05-09T05:13:33.750Z,41.33
2023-05-09T05:14:33.729Z,38.21
2023-05-09T05:15:33.754Z,41.55
2023-05-09T05:16:33.808Z,39.37
2023-05-09T05:17:33.753Z,40.65
2023-05-09T05:18:33.725Z,38.87
2023-05-09T05:19:33.710Z,37.30
2023-05-09T05:20:33.675Z,36.67
2023-05-09T05:21:33.698Z,38.86
2023-05-09T05:22:33.679Z,39.27
2023-05-09T05:23:33.683Z,38.35
2023-05-09T05:24:33.701Z,43.22
2023-05-09T05:25:33.776Z,45.16
2023-05-09T05:26:33.687Z,41.65
2023-05-09T05:27:33.655Z,42.71
2023-05-09T05:28:33.663Z,42.85
2023-05-09T05:29:33.640Z,42.16
2023-05-09T05:30:34.628Z,41.83
2023-05-09T05:31:33.760Z,42.51
2023-05-09T05:32:33.656Z,43.66
2023-05-09T05:33:33.597Z,42.25
2023-05-09T05:34:33.633Z,44.86
2023-05-09T05:35:33.623Z,44.54
2023-05-09T05:36:33.723Z,49.32
2023-05-09T05:37:33.598Z,52.04
2023-05-09T05:38:33.596Z,58.60
2023-05-09T05:39:33.561Z,59.06
2023-05-09T05:40:33.578Z,72.70
2023-05-09T05:41:33.824Z,77.46
2023-05-09T05:42:33.551Z,82.41
2023-05-09T05:43:33.528Z,90.12
2023-05-09T05:44:33.566Z,99.65
2023-05-09T05:45:40.563Z,108.28
2023-05-09T05:46:33.553Z,108.86
2023-05-09T05:47:33.562Z,110.71
2023-05-09T05:48:33.525Z,116.58
2023-05-09T05:49:33.531Z,130.64
2023-05-09T05:50:33.501Z,152.21
2023-05-09T05:51:33.497Z,158.68
2023-05-09T05:52:33.486Z,168.50
2023-05-09T05:53:33.511Z,167.24
2023-05-09T05:54:33.496Z,167.33
2023-05-09T05:55:33.445Z,171.91
2023-05-09T05:56:33.476Z,172.33
2023-05-09T05:57:33.540Z,168.69
2023-05-09T05:58:33.446Z,163.41
2023-05-09T05:59:33.440Z,174.02
2023-05-09T06:00:33.423Z,166.94
2023-05-09T06:01:33.436Z,149.94
2023-05-09T06:02:33.640Z,145.09
2023-05-09T06:03:33.472Z,161.04
2023-05-09T06:04:33.404Z,141.84
2023-05-09T06:05:33.396Z,142.60
2023-05-09T06:06:33.410Z,164.85
2023-05-09T06:07:33.748Z,178.48
2023-05-09T06:08:33.373Z,184.47
2023-05-09T06:09:33.425Z,182.87
2023-05-09T06:10:34.251Z,188.31
2023-05-09T06:11:33.509Z,188.31
2023-05-09T06:12:33.577Z,185.37
2023-05-09T06:13:33.736Z,164.08
2023-05-09T06:14:33.681Z,164.41
2023-05-09T06:15:33.774Z,182.48
2023-05-09T06:16:33.825Z,193.17
2023-05-09T06:17:33.986Z,188.85
2023-05-09T06:18:33.957Z,194.25
2023-05-09T06:19:34.013Z,192.50
2023-05-09T06:20:34.072Z,187.36
2023-05-09T06:21:34.124Z,190.72
2023-05-09T06:22:34.182Z,190.47
2023-05-09T06:23:34.215Z,187.64
2023-05-09T06:24:36.115Z,176.52
2023-05-09T06:25:34.374Z,181.88
2023-05-09T06:26:34.450Z,182.67
2023-05-09T06:27:34.741Z,185.06
2023-05-09T06:28:34.573Z,190.20
2023-05-09T06:29:34.702Z,198.53
2023-05-09T06:30:34.660Z,202.90
2023-05-09T06:31:34.793Z,205.05
2023-05-09T06:32:34.844Z,209.49
2023-05-09T06:33:34.878Z,220.41
2023-05-09T06:34:34.921Z,225.19
2023-05-09T06:35:34.993Z,232.60
2023-05-09T06:36:35.068Z,240.84
2023-05-09T06:37:35.081Z,248.97
2023-05-09T06:38:35.166Z,250.00
2023-05-09T06:39:35.238Z,250.00
2023-05-09T06:40:35.243Z,249.55
2023-05-09T06:41:35.255Z,249.49
2023-05-09T06:42:35.297Z,248.19
2023-05-09T06:43:35.386Z,245.78
2023-05-09T06:44:35.374Z,242.78
2023-05-09T06:45:35.509Z,226.97
2023-05-09T06:46:35.446Z,226.93
2023-05-09T06:47:35.872Z,229.73
2023-05-09T06:48:35.416Z,229.34
2023-05-09T06:49:36.276Z,234.74
2023-05-09T06:50:35.471Z,237.54
2023-05-09T06:51:35.523Z,239.01
2023-05-09T06:52:35.550Z,238.22
2023-05-09T06:53:35.563Z,239.10
2023-05-09T06:54:35.553Z,241.38
2023-05-09T06:55:35.598Z,238.25
2023-05-09T06:56:35.609Z,240.21
2023-05-09T06:57:35.602Z,238.71
2023-05-09T06:58:35.794Z,226.25
2023-05-09T06:59:35.618Z,229.83
2023-05-09T07:00:35.607Z,233.18
2023-05-09T07:01:35.748Z,232.23
2023-05-09T07:02:35.664Z,231.08
2023-05-09T07:03:35.648Z,231.01
2023-05-09T07:04:35.667Z,230.26
2023-05-09T07:05:35.774Z,232.98
2023-05-09T07:06:35.739Z,231.91
2023-05-09T07:07:35.764Z,231.35
2023-05-09T07:08:35.863Z,231.17
2023-05-09T07:09:35.875Z,233.23
2023-05-09T07:10:35.920Z,233.70
2023-05-09T07:11:36.028Z,234.31
2023-05-09T07:12:36.035Z,232.50
2023-05-09T07:13:37.309Z,236.12
2023-05-09T07:14:36.118Z,237.63
2023-05-09T07:15:42.002Z,237.78
2023-05-09T07:16:37.854Z,238.10
2023-05-09T07:17:36.319Z,239.49
2023-05-09T07:18:36.145Z,241.60
2023-05-09T07:19:36.283Z,244.63
2023-05-09T07:20:36.145Z,247.42
2023-05-09T07:21:36.140Z,247.72
2023-05-09T07:22:37.455Z,250.00
2023-05-09T07:23:36.161Z,248.69
2023-05-09T07:24:36.126Z,240.20
2023-05-09T07:25:36.143Z,239.88
2023-05-09T07:26:36.108Z,240.57
2023-05-09T07:27:36.200Z,239.59
2023-05-09T07:28:36.305Z,241.77
2023-05-09T07:29:36.172Z,216.66
2023-05-09T07:30:36.157Z,227.12
2023-05-09T07:31:37.427Z,228.72
2023-05-09T07:32:36.252Z,207.26
2023-05-09T07:33:36.375Z,197.26
2023-05-09T07:34:36.278Z,154.03
2023-05-09T07:35:36.299Z,140.24
2023-05-09T07:37:36.378Z,140.19
2023-05-09T07:38:36.819Z,138.63
2023-05-09T07:39:36.405Z,131.14
2023-05-09T07:40:36.462Z,121.55
2023-05-09T07:41:36.401Z,134.09
2023-05-09T07:42:36.408Z,133.12
2023-05-09T07:43:36.772Z,138.02
2023-05-09T07:44:36.473Z,138.00
2023-05-09T07:45:36.570Z,124.94
2023-05-09T07:46:36.437Z,130.22
2023-05-09T07:47:36.481Z,137.92
2023-05-09T07:48:36.459Z,136.98
2023-05-09T07:49:36.534Z,152.84
2023-05-09T07:50:36.466Z,111.08
2023-05-09T07:51:36.458Z,97.38
2023-05-09T07:52:36.457Z,88.70
2023-05-09T07:53:36.473Z,87.69
2023-05-09T07:54:36.490Z,69.16
2023-05-09T07:55:36.580Z,77.30
2023-05-09T07:56:36.594Z,88.38
2023-05-09T07:57:36.680Z,101.14
2023-05-09T07:58:36.748Z,106.81
2023-05-09T07:59:36.815Z,108.02
2023-05-09T08:00:36.825Z,104.14
2023-05-09T08:01:36.861Z,109.17
2023-05-09T08:02:37.059Z,104.25
2023-05-09T08:03:37.098Z,103.76
2023-05-09T08:04:37.176Z,95.51
2023-05-09T08:05:37.234Z,106.92
2023-05-09T08:06:37.205Z,98.11
2023-05-09T08:07:37.280Z,89.63
2023-05-09T08:08:38.898Z,75.29
2023-05-09T08:09:37.356Z,73.29
2023-05-09T08:10:37.466Z,76.67
2023-05-09T08:11:37.513Z,87.83
2023-05-09T08:12:37.561Z,102.41
2023-05-09T08:13:37.779Z,101.84
2023-05-09T08:14:37.667Z,105.18
2023-05-09T08:15:37.814Z,108.07
2023-05-09T08:16:37.816Z,113.08
2023-05-09T08:17:37.872Z,119.19
2023-05-09T08:18:38.329Z,122.21
2023-05-09T08:19:37.909Z,117.56
2023-05-09T08:20:37.929Z,123.75
2023-05-09T08:21:38.036Z,130.28
2023-05-09T08:22:37.939Z,134.71
2023-05-09T08:23:37.977Z,138.63
2023-05-09T08:24:38.316Z,142.56
2023-05-09T08:25:38.071Z,143.37
2023-05-09T08:26:38.181Z,146.44
2023-05-09T08:27:38.238Z,149.66
2023-05-09T08:28:38.238Z,159.48
2023-05-09T08:29:38.352Z,162.11
2023-05-09T08:30:38.315Z,164.45
2023-05-09T08:31:38.366Z,171.76
2023-05-09T08:32:38.380Z,169.25
2023-05-09T08:33:40.504Z,173.38
2023-05-09T08:34:38.830Z,180.38
2023-05-09T08:35:38.336Z,181.09
2023-05-09T08:36:38.362Z,174.20
2023-05-09T08:37:38.723Z,174.38
2023-05-09T08:38:38.335Z,171.77
2023-05-09T08:39:38.332Z,165.92
2023-05-09T08:40:38.328Z,167.49
2023-05-09T08:41:38.295Z,164.59
2023-05-09T08:42:38.319Z,162.50
2023-05-09T08:43:38.312Z,162.83
2023-05-09T08:44:38.297Z,162.19
2023-05-09T08:45:38.303Z,163.03
2023-05-09T08:46:38.297Z,161.02
2023-05-09T08:47:38.318Z,162.65
2023-05-09T08:48:38.286Z,163.87
2023-05-09T08:49:38.307Z,162.18
2023-05-09T08:50:38.367Z,165.82
2023-05-09T08:51:38.329Z,158.40
2023-05-09T08:52:38.251Z,134.42
2023-05-09T08:53:38.320Z,143.72
2023-05-09T08:54:38.219Z,159.79
2023-05-09T08:55:38.198Z,161.40
2023-05-09T08:56:38.232Z,164.43
2023-05-09T08:57:38.209Z,171.30
2023-05-09T08:58:38.213Z,174.77
2023-05-09T08:59:38.359Z,178.64
2023-05-09T09:00:38.151Z,182.72
2023-05-09T09:01:38.184Z,184.09
2023-05-09T09:02:38.180Z,186.68
2023-05-09T09:03:38.147Z,182.54
2023-05-09T09:04:38.221Z,185.26
2023-05-09T09:05:41.307Z,189.31
2023-05-09T09:06:38.150Z,189.65
2023-05-09T09:07:38.135Z,190.35
2023-05-09T09:08:38.141Z,189.73
2023-05-09T09:09:38.229Z,187.50
2023-05-09T09:10:38.127Z,186.25
2023-05-09T09:11:38.099Z,187.66
2023-05-09T09:12:38.075Z,186.24
2023-05-09T09:13:38.141Z,188.05
2023-05-09T09:14:38.084Z,184.09
2023-05-09T09:15:38.072Z,178.04
2023-05-09T09:16:38.106Z,176.51
2023-05-09T09:17:38.092Z,175.59
2023-05-09T09:18:39.597Z,174.13
2023-05-09T09:19:38.332Z,161.89
2023-05-09T09:20:38.105Z,159.37
2023-05-09T09:21:38.121Z,154.51
2023-05-09T09:22:38.047Z,150.96
2023-05-09T09:23:38.061Z,136.93
2023-05-09T09:24:38.060Z,128.19
2023-05-09T09:25:38.808Z,129.73
2023-05-09T09:26:38.045Z,132.25
2023-05-09T09:27:38.155Z,135.84
2023-05-09T09:28:37.998Z,134.33
2023-05-09T09:29:38.396Z,132.21
2023-05-09T09:30:38.026Z,133.32
2023-05-09T09:31:38.034Z,134.24
2023-05-09T09:32:37.978Z,119.49
2023-05-09T09:33:37.974Z,125.38
2023-05-09T09:34:37.977Z,116.80
2023-05-09T09:35:38.341Z,115.13
2023-05-09T09:36:38.003Z,106.55
2023-05-09T09:37:37.978Z,92.85
2023-05-09T09:38:38.015Z,84.36
2023-05-09T09:39:38.021Z,76.59
2023-05-09T09:40:38.000Z,69.60
2023-05-09T09:41:38.141Z,62.65
2023-05-09T09:42:38.045Z,58.12
2023-05-09T09:43:38.054Z,0.00
2023-05-09T09:44:38.088Z,0.00
2023-05-09T09:45:38.162Z,0.00
2023-05-09T09:46:38.188Z,18.48
2023-05-09T09:47:38.187Z,40.90
2023-05-09T09:48:38.197Z,43.80
2023-05-09T09:49:38.231Z,56.67
2023-05-09T09:50:38.350Z,58.92
2023-05-09T09:51:38.272Z,59.14
2023-05-09T09:52:38.282Z,57.16
2023-05-09T09:53:38.354Z,50.30
2023-05-09T09:54:38.389Z,37.68
2023-05-09T09:55:38.402Z,37.57
2023-05-09T09:56:38.409Z,24.57
2023-05-09T09:57:38.579Z,30.29
2023-05-09T09:58:38.525Z,34.70
2023-05-09T09:59:38.595Z,31.41
2023-05-09T10:00:38.876Z,35.12
2023-05-09T10:01:38.635Z,38.69
2023-05-09T10:02:38.691Z,35.40
2023-05-09T10:03:38.713Z,33.22
2023-05-09T10:04:38.682Z,22.02
2023-05-09T10:05:38.865Z,25.00
2023-05-09T10:06:38.785Z,9.71
2023-05-09T10:07:38.763Z,1.74
2023-05-09T10:08:38.776Z,8.56
2023-05-09T10:09:38.803Z,19.16
2023-05-09T10:10:38.783Z,42.60
2023-05-09T10:11:38.755Z,49.84
2023-05-09T10:12:38.765Z,35.83
2023-05-09T10:13:38.837Z,39.77
2023-05-09T10:14:38.784Z,44.55
2023-05-09T10:15:52.325Z,50.39
2023-05-09T10:16:43.835Z,50.41
2023-05-09T10:17:38.954Z,50.53
2023-05-09T10:18:38.913Z,50.45
2023-05-09T10:19:38.806Z,46.07
2023-05-09T10:20:38.872Z,45.44
2023-05-09T10:21:38.772Z,44.57
2023-05-09T10:22:38.778Z,32.84
2023-05-09T10:23:38.733Z,30.22
2023-05-09T10:24:38.799Z,16.84
2023-05-09T10:25:38.763Z,14.23
2023-05-09T10:26:38.760Z,29.42
2023-05-09T10:27:38.735Z,39.37
2023-05-09T10:28:38.708Z,42.32
2023-05-09T10:29:38.852Z,40.39
2023-05-09T10:30:38.755Z,45.55
2023-05-09T10:31:38.779Z,47.17
2023-05-09T10:32:38.720Z,47.07
2023-05-09T10:33:38.662Z,48.08
2023-05-09T10:34:38.671Z,45.95
2023-05-09T10:35:38.709Z,38.60
2023-05-09T10:36:38.676Z,28.04
2023-05-09T10:37:38.649Z,0.00
2023-05-09T10:38:38.686Z,5.47
2023-05-09T10:39:38.631Z,16.35
2023-05-09T10:40:38.894Z,34.58
2023-05-09T10:41:38.654Z,60.22
2023-05-09T10:42:38.626Z,71.94
2023-05-09T10:43:38.631Z,70.66
2023-05-09T10:44:38.643Z,78.68
2023-05-09T10:45:38.710Z,81.89
2023-05-09T10:46:38.710Z,77.75
2023-05-09T10:47:38.684Z,79.77
2023-05-09T10:48:38.721Z,80.26
2023-05-09T10:49:38.587Z,77.97
2023-05-09T10:50:38.606Z,81.13
2023-05-09T10:51:38.577Z,91.91
2023-05-09T10:52:38.588Z,103.47
2023-05-09T10:53:38.584Z,107.93
2023-05-09T10:54:38.643Z,117.27
2023-05-09T10:55:38.596Z,94.37
2023-05-09T10:56:38.515Z,87.40
2023-05-09T10:57:38.599Z,97.82
2023-05-09T10:58:38.575Z,88.96
2023-05-09T10:59:38.507Z,26.73
2023-05-09T11:00:38.888Z,14.74
2023-05-09T11:01:38.673Z,16.29
2023-05-09T11:02:38.511Z,29.13
2023-05-09T11:03:38.575Z,55.07
2023-05-09T11:04:38.505Z,55.34
2023-05-09T11:05:38.894Z,74.18
2023-05-09T11:06:38.493Z,85.36
2023-05-09T11:07:38.540Z,77.51
2023-05-09T11:08:38.455Z,92.72
2023-05-09T11:09:38.602Z,102.19
2023-05-09T11:10:38.450Z,93.08
2023-05-09T11:11:38.454Z,30.58
2023-05-09T11:12:38.457Z,3.84
2023-05-09T11:13:38.425Z,5.07
2023-05-09T11:14:38.415Z,0.00
2023-05-09T11:15:38.408Z,0.00
2023-05-09T11:16:38.932Z,0.00
2023-05-09T11:17:38.527Z,0.00
2023-05-09T11:18:38.447Z,4.96
2023-05-09T11:19:39.382Z,11.70
2023-05-09T11:20:38.388Z,10.86
2023-05-09T11:21:38.412Z,16.04
2023-05-09T11:22:38.413Z,34.20
2023-05-09T11:23:38.364Z,52.48
2023-05-09T11:24:38.328Z,48.65
2023-05-09T11:25:38.330Z,49.53
2023-05-09T11:26:38.355Z,55.77
2023-05-09T11:27:38.372Z,69.79
2023-05-09T11:28:38.361Z,74.13
2023-05-09T11:29:38.393Z,87.33
2023-05-09T11:30:38.413Z,100.90
2023-05-09T11:31:39.059Z,111.36
2023-05-09T11:32:38.445Z,118.72
2023-05-09T11:33:38.501Z,126.94
2023-05-09T11:34:38.506Z,128.65
2023-05-09T11:35:38.395Z,128.79
2023-05-09T11:36:38.952Z,131.63
2023-05-09T11:37:38.393Z,132.71
2023-05-09T11:38:38.460Z,133.33
2023-05-09T11:39:38.447Z,134.62
2023-05-09T11:40:38.440Z,136.87
2023-05-09T11:41:38.501Z,137.99
2023-05-09T11:42:38.481Z,139.57
2023-05-09T11:43:38.552Z,142.14
2023-05-09T11:44:38.596Z,143.51
2023-05-09T11:45:38.652Z,144.64
2023-05-09T11:46:38.668Z,144.61
2023-05-09T11:47:38.781Z,146.36
2023-05-09T11:48:38.781Z,147.02
2023-05-09T11:49:38.949Z,148.60
2023-05-09T11:50:38.856Z,149.70
2023-05-09T11:51:38.935Z,149.98
2023-05-09T11:52:38.922Z,150.14
2023-05-09T11:53:38.966Z,150.51
2023-05-09T11:54:39.025Z,152.41
2023-05-09T11:55:39.117Z,153.39
2023-05-09T11:56:39.155Z,153.69
2023-05-09T11:57:39.242Z,154.80
2023-05-09T11:58:39.285Z,155.54
2023-05-09T11:59:39.328Z,157.03
2023-05-09T12:00:39.407Z,158.62
2023-05-09T12:01:39.461Z,158.88
2023-05-09T12:02:39.633Z,159.93
2023-05-09T12:03:39.633Z,160.24
2023-05-09T12:04:39.653Z,161.00
2023-05-09T12:05:39.679Z,161.21
2023-05-09T12:06:39.605Z,161.47
2023-05-09T12:07:39.603Z,162.52
2023-05-09T12:08:39.682Z,163.85
2023-05-09T12:09:39.646Z,165.44
2023-05-09T12:10:39.659Z,166.28
2023-05-09T12:11:39.667Z,168.96
2023-05-09T12:12:39.664Z,170.61
2023-05-09T12:13:39.675Z,172.70
2023-05-09T12:14:39.700Z,175.03
2023-05-09T12:15:39.784Z,175.92
2023-05-09T12:16:39.810Z,177.44
2023-05-09T12:17:39.752Z,178.64
2023-05-09T12:18:39.735Z,179.04
2023-05-09T12:19:39.734Z,181.02
2023-05-09T12:20:39.739Z,180.96
2023-05-09T12:21:39.754Z,180.53
2023-05-09T12:22:39.789Z,182.20
2023-05-09T12:23:39.811Z,185.29
2023-05-09T12:24:39.881Z,186.06
2023-05-09T12:25:39.930Z,184.06
2023-05-09T12:26:40.026Z,180.68
2023-05-09T12:27:40.022Z,181.45
2023-05-09T12:28:40.112Z,180.35
2023-05-09T12:29:40.165Z,179.85
2023-05-09T12:30:40.196Z,180.36
2023-05-09T12:31:40.311Z,181.78
2023-05-09T12:32:40.602Z,182.62
2023-05-09T12:34:13.819Z,25.00
2023-05-09T12:35:13.995Z,25.00
2023-05-09T12:36:13.867Z,25.00
2023-05-09T12:37:13.848Z,25.00
2023-05-09T12:38:13.791Z,25.00
2023-05-09T12:39:13.760Z,25.86
2023-05-09T12:40:13.742Z,28.68
2023-05-09T12:41:33.257Z,25.71
2023-05-09T12:42:14.778Z,26.31
2023-05-09T12:43:13.736Z,28.67
2023-05-09T12:44:13.727Z,34.43
2023-05-09T12:45:14.092Z,43.99